sensor_id;sensor_type;location;lat;lon;timestamp;P1;durP1;ratioP1;P2;durP2;ratioP2
63157;SDS011;49381;49.338;8.794;2023-01-09T00:00:49;14.32;;;7.47;;
63157;SDS011;49381;49.338;8.794;2023-01-09T00:02:51;9.77;;;6.25;;
63157;SDS011;49381;49.338;8.794;2023-01-09T00:04:52;13.27;;;7.53;;
63157;SDS011;49381;49.338;8.794;2023-01-09T00:06:54;11.18;;;7.32;;
63157;SDS011;49381;49.338;8.794;2023-01-09T00:08:54;9.20;;;5.75;;
63157;SDS011;49381;49.338;8.794;2023-01-09T00:10:55;9.32;;;6.35;;
63157;SDS011;49381;49.338;8.794;2023-01-09T00:12:56;8.82;;;5.80;;
63157;SDS011;49381;49.338;8.794;2023-01-09T00:14:58;11.98;;;6.22;;
63157;SDS011;49381;49.338;8.794;2023-01-09T00:16:58;9.57;;;6.22;;
63157;SDS011;49381;49.338;8.794;2023-01-09T00:18:58;9.38;;;5.88;;
63157;SDS011;49381;49.338;8.794;2023-01-09T00:20:59;10.38;;;6.47;;
63157;SDS011;49381;49.338;8.794;2023-01-09T00:22:59;10.95;;;5.82;;
63157;SDS011;49381;49.338;8.794;2023-01-09T00:25:00;9.05;;;5.95;;
63157;SDS011;49381;49.338;8.794;2023-01-09T00:27:00;11.45;;;5.85;;
63157;SDS011;49381;49.338;8.794;2023-01-09T00:29:00;7.35;;;5.07;;
63157;SDS011;49381;49.338;8.794;2023-01-09T00:31:03;8.85;;;5.05;;
63157;SDS011;49381;49.338;8.794;2023-01-09T00:33:04;10.95;;;5.20;;
63157;SDS011;49381;49.338;8.794;2023-01-09T00:35:05;7.43;;;4.72;;
63157;SDS011;49381;49.338;8.794;2023-01-09T00:37:07;8.07;;;4.93;;
63157;SDS011;49381;49.338;8.794;2023-01-09T00:39:10;7.85;;;4.45;;
63157;SDS011;49381;49.338;8.794;2023-01-09T00:41:14;8.48;;;4.35;;
63157;SDS011;49381;49.338;8.794;2023-01-09T00:43:18;6.90;;;4.68;;
63157;SDS011;49381;49.338;8.794;2023-01-09T00:45:21;9.65;;;5.57;;
63157;SDS011;49381;49.338;8.794;2023-01-09T00:47:26;10.05;;;5.13;;
63157;SDS011;49381;49.338;8.794;2023-01-09T00:49:33;11.07;;;6.32;;
63157;SDS011;49381;49.338;8.794;2023-01-09T00:51:35;8.65;;;5.60;;
63157;SDS011;49381;49.338;8.794;2023-01-09T00:53:38;10.15;;;6.00;;
63157;SDS011;49381;49.338;8.794;2023-01-09T00:55:41;9.40;;;5.88;;
63157;SDS011;49381;49.338;8.794;2023-01-09T00:57:42;10.27;;;5.80;;
63157;SDS011;49381;49.338;8.794;2023-01-09T00:59:43;11.10;;;7.60;;
63157;SDS011;49381;49.338;8.794;2023-01-09T01:01:46;10.00;;;6.30;;
63157;SDS011;49381;49.338;8.794;2023-01-09T01:03:50;11.15;;;6.45;;
63157;SDS011;49381;49.338;8.794;2023-01-09T01:05:51;23.48;;;12.88;;
63157;SDS011;49381;49.338;8.794;2023-01-09T01:07:51;18.95;;;10.07;;
63157;SDS011;49381;49.338;8.794;2023-01-09T01:09:52;21.00;;;11.27;;
63157;SDS011;49381;49.338;8.794;2023-01-09T01:11:52;24.10;;;13.05;;
63157;SDS011;49381;49.338;8.794;2023-01-09T01:13:53;25.73;;;13.20;;
63157;SDS011;49381;49.338;8.794;2023-01-09T01:15:56;29.75;;;16.13;;
63157;SDS011;49381;49.338;8.794;2023-01-09T01:17:58;28.33;;;15.68;;
63157;SDS011;49381;49.338;8.794;2023-01-09T01:20:00;33.17;;;17.92;;
63157;SDS011;49381;49.338;8.794;2023-01-09T01:22:01;26.90;;;12.80;;
63157;SDS011;49381;49.338;8.794;2023-01-09T01:24:02;25.10;;;14.30;;
63157;SDS011;49381;49.338;8.794;2023-01-09T01:26:06;24.17;;;13.05;;
63157;SDS011;49381;49.338;8.794;2023-01-09T01:28:10;24.00;;;11.18;;
63157;SDS011;49381;49.338;8.794;2023-01-09T01:30:12;19.88;;;10.80;;
63157;SDS011;49381;49.338;8.794;2023-01-09T01:32:14;12.60;;;8.68;;
63157;SDS011;49381;49.338;8.794;2023-01-09T01:34:14;11.70;;;6.68;;
63157;SDS011;49381;49.338;8.794;2023-01-09T01:36:16;11.82;;;6.97;;
63157;SDS011;49381;49.338;8.794;2023-01-09T01:38:16;9.50;;;6.47;;
63157;SDS011;49381;49.338;8.794;2023-01-09T01:40:17;9.73;;;6.50;;
63157;SDS011;49381;49.338;8.794;2023-01-09T01:42:17;12.32;;;8.25;;
63157;SDS011;49381;49.338;8.794;2023-01-09T01:47:10;13.95;;;8.13;;
63157;SDS011;49381;49.338;8.794;2023-01-09T01:49:12;13.48;;;7.30;;
63157;SDS011;49381;49.338;8.794;2023-01-09T01:51:16;10.98;;;6.95;;
63157;SDS011;49381;49.338;8.794;2023-01-09T01:53:20;13.65;;;7.80;;
63157;SDS011;49381;49.338;8.794;2023-01-09T01:55:23;11.05;;;6.43;;
63157;SDS011;49381;49.338;8.794;2023-01-09T01:57:23;9.10;;;5.88;;
63157;SDS011;49381;49.338;8.794;2023-01-09T01:59:25;11.13;;;6.78;;
63157;SDS011;49381;49.338;8.794;2023-01-09T02:01:27;13.38;;;7.82;;
63157;SDS011;49381;49.338;8.794;2023-01-09T02:03:29;13.15;;;7.47;;
63157;SDS011;49381;49.338;8.794;2023-01-09T02:05:29;12.18;;;7.22;;
63157;SDS011;49381;49.338;8.794;2023-01-09T02:07:31;11.10;;;6.45;;
63157;SDS011;49381;49.338;8.794;2023-01-09T02:09:31;9.90;;;6.72;;
63157;SDS011;49381;49.338;8.794;2023-01-09T02:11:32;11.40;;;5.50;;
63157;SDS011;49381;49.338;8.794;2023-01-09T02:13:34;8.45;;;4.80;;
63157;SDS011;49381;49.338;8.794;2023-01-09T02:15:38;7.50;;;4.57;;
63157;SDS011;49381;49.338;8.794;2023-01-09T02:17:58;6.40;;;3.97;;
63157;SDS011;49381;49.338;8.794;2023-01-09T02:20:30;4.70;;;2.88;;
63157;SDS011;49381;49.338;8.794;2023-01-09T02:22:39;2.40;;;1.70;;
63157;SDS011;49381;49.338;8.794;2023-01-09T02:24:48;3.28;;;1.50;;
63157;SDS011;49381;49.338;8.794;2023-01-09T02:27:07;2.65;;;0.68;;
63157;SDS011;49381;49.338;8.794;2023-01-09T02:29:35;1.73;;;0.50;;
63157;SDS011;49381;49.338;8.794;2023-01-09T02:31:55;1.30;;;0.40;;
63157;SDS011;49381;49.338;8.794;2023-01-09T02:34:01;0.55;;;0.50;;
63157;SDS011;49381;49.338;8.794;2023-01-09T02:36:13;0.63;;;0.50;;
63157;SDS011;49381;49.338;8.794;2023-01-09T02:38:22;1.92;;;0.50;;
63157;SDS011;49381;49.338;8.794;2023-01-09T02:40:28;2.50;;;0.70;;
63157;SDS011;49381;49.338;8.794;2023-01-09T02:42:32;1.20;;;0.65;;
63157;SDS011;49381;49.338;8.794;2023-01-09T02:44:35;0.70;;;0.30;;
63157;SDS011;49381;49.338;8.794;2023-01-09T02:46:35;1.30;;;0.43;;
63157;SDS011;49381;49.338;8.794;2023-01-09T02:48:37;0.90;;;0.50;;
63157;SDS011;49381;49.338;8.794;2023-01-09T02:50:38;0.93;;;0.60;;
63157;SDS011;49381;49.338;8.794;2023-01-09T02:52:52;1.17;;;0.30;;
63157;SDS011;49381;49.338;8.794;2023-01-09T02:55:07;1.55;;;0.60;;
63157;SDS011;49381;49.338;8.794;2023-01-09T02:57:13;1.40;;;0.57;;
63157;SDS011;49381;49.338;8.794;2023-01-09T02:59:35;0.68;;;0.40;;
63157;SDS011;49381;49.338;8.794;2023-01-09T03:01:54;0.65;;;0.30;;
63157;SDS011;49381;49.338;8.794;2023-01-09T03:04:16;0.60;;;0.43;;
63157;SDS011;49381;49.338;8.794;2023-01-09T03:06:22;0.90;;;0.38;;
63157;SDS011;49381;49.338;8.794;2023-01-09T03:08:30;2.45;;;0.75;;
63157;SDS011;49381;49.338;8.794;2023-01-09T03:12:38;0.50;;;0.50;;
63157;SDS011;49381;49.338;8.794;2023-01-09T03:14:43;1.77;;;0.55;;
63157;SDS011;49381;49.338;8.794;2023-01-09T03:16:47;5.53;;;0.60;;
63157;SDS011;49381;49.338;8.794;2023-01-09T03:18:50;0.47;;;0.38;;
63157;SDS011;49381;49.338;8.794;2023-01-09T03:20:52;0.63;;;0.45;;
63157;SDS011;49381;49.338;8.794;2023-01-09T03:22:54;1.23;;;0.63;;
63157;SDS011;49381;49.338;8.794;2023-01-09T03:24:56;1.92;;;0.82;;
63157;SDS011;49381;49.338;8.794;2023-01-09T03:26:56;1.20;;;0.60;;
63157;SDS011;49381;49.338;8.794;2023-01-09T03:28:57;1.00;;;0.60;;
63157;SDS011;49381;49.338;8.794;2023-01-09T03:30:57;1.20;;;0.60;;
63157;SDS011;49381;49.338;8.794;2023-01-09T03:32:58;1.30;;;0.57;;
63157;SDS011;49381;49.338;8.794;2023-01-09T03:34:58;1.50;;;0.50;;
63157;SDS011;49381;49.338;8.794;2023-01-09T03:37:00;3.20;;;0.70;;
63157;SDS011;49381;49.338;8.794;2023-01-09T03:39:00;1.20;;;0.60;;
63157;SDS011;49381;49.338;8.794;2023-01-09T03:41:01;3.83;;;0.80;;
63157;SDS011;49381;49.338;8.794;2023-01-09T03:43:01;1.58;;;0.65;;
63157;SDS011;49381;49.338;8.794;2023-01-09T03:45:01;1.60;;;0.70;;
63157;SDS011;49381;49.338;8.794;2023-01-09T03:47:02;11.38;;;8.25;;
63157;SDS011;49381;49.338;8.794;2023-01-09T03:49:03;2.92;;;1.30;;
63157;SDS011;49381;49.338;8.794;2023-01-09T03:51:03;2.05;;;1.10;;
63157;SDS011;49381;49.338;8.794;2023-01-09T03:53:05;2.78;;;0.88;;
63157;SDS011;49381;49.338;8.794;2023-01-09T03:55:07;3.05;;;0.80;;
63157;SDS011;49381;49.338;8.794;2023-01-09T03:57:11;0.98;;;0.60;;
63157;SDS011;49381;49.338;8.794;2023-01-09T03:59:11;0.88;;;0.40;;
63157;SDS011;49381;49.338;8.794;2023-01-09T04:01:11;1.38;;;0.40;;
63157;SDS011;49381;49.338;8.794;2023-01-09T04:03:12;0.73;;;0.40;;
63157;SDS011;49381;49.338;8.794;2023-01-09T04:05:12;0.43;;;0.40;;
63157;SDS011;49381;49.338;8.794;2023-01-09T04:07:13;0.88;;;0.50;;
63157;SDS011;49381;49.338;8.794;2023-01-09T04:09:14;1.35;;;0.75;;
63157;SDS011;49381;49.338;8.794;2023-01-09T04:11:14;0.93;;;0.43;;
63157;SDS011;49381;49.338;8.794;2023-01-09T04:13:15;1.58;;;0.40;;
63157;SDS011;49381;49.338;8.794;2023-01-09T04:15:15;1.25;;;0.30;;
63157;SDS011;49381;49.338;8.794;2023-01-09T04:17:16;0.65;;;0.40;;
63157;SDS011;49381;49.338;8.794;2023-01-09T04:19:16;0.60;;;0.30;;
63157;SDS011;49381;49.338;8.794;2023-01-09T04:21:17;0.98;;;0.40;;
63157;SDS011;49381;49.338;8.794;2023-01-09T04:23:17;0.63;;;0.32;;
63157;SDS011;49381;49.338;8.794;2023-01-09T04:25:19;1.20;;;0.60;;
63157;SDS011;49381;49.338;8.794;2023-01-09T04:27:19;0.63;;;0.40;;
63157;SDS011;49381;49.338;8.794;2023-01-09T04:29:19;1.17;;;0.35;;
63157;SDS011;49381;49.338;8.794;2023-01-09T04:31:20;0.88;;;0.40;;
63157;SDS011;49381;49.338;8.794;2023-01-09T04:33:20;0.70;;;0.40;;
63157;SDS011;49381;49.338;8.794;2023-01-09T04:35:20;0.43;;;0.30;;
63157;SDS011;49381;49.338;8.794;2023-01-09T04:37:21;2.30;;;0.20;;
63157;SDS011;49381;49.338;8.794;2023-01-09T04:39:22;1.00;;;0.50;;
63157;SDS011;49381;49.338;8.794;2023-01-09T04:41:24;0.88;;;0.40;;
63157;SDS011;49381;49.338;8.794;2023-01-09T04:43:24;0.35;;;0.25;;
63157;SDS011;49381;49.338;8.794;2023-01-09T04:45:24;0.20;;;0.20;;
63157;SDS011;49381;49.338;8.794;2023-01-09T04:47:25;0.55;;;0.20;;
63157;SDS011;49381;49.338;8.794;2023-01-09T04:49:25;0.20;;;0.20;;
63157;SDS011;49381;49.338;8.794;2023-01-09T04:51:26;0.75;;;0.40;;
63157;SDS011;49381;49.338;8.794;2023-01-09T04:53:26;1.58;;;0.63;;
63157;SDS011;49381;49.338;8.794;2023-01-09T04:55:26;1.10;;;0.30;;
63157;SDS011;49381;49.338;8.794;2023-01-09T04:57:28;3.50;;;0.55;;
63157;SDS011;49381;49.338;8.794;2023-01-09T04:59:28;0.28;;;0.20;;
63157;SDS011;49381;49.338;8.794;2023-01-09T05:01:29;1.63;;;0.47;;
63157;SDS011;49381;49.338;8.794;2023-01-09T05:03:29;2.42;;;0.20;;
63157;SDS011;49381;49.338;8.794;2023-01-09T05:05:29;1.40;;;0.70;;
63157;SDS011;49381;49.338;8.794;2023-01-09T05:07:32;0.85;;;0.40;;
63157;SDS011;49381;49.338;8.794;2023-01-09T05:09:33;0.77;;;0.30;;
63157;SDS011;49381;49.338;8.794;2023-01-09T05:11:33;1.23;;;0.30;;
63157;SDS011;49381;49.338;8.794;2023-01-09T05:13:35;0.95;;;0.30;;
63157;SDS011;49381;49.338;8.794;2023-01-09T05:15:41;1.70;;;0.40;;
63157;SDS011;49381;49.338;8.794;2023-01-09T05:17:42;2.30;;;0.40;;
63157;SDS011;49381;49.338;8.794;2023-01-09T05:19:42;2.70;;;0.50;;
63157;SDS011;49381;49.338;8.794;2023-01-09T05:21:42;2.28;;;0.32;;
63157;SDS011;49381;49.338;8.794;2023-01-09T05:23:43;1.23;;;0.30;;
63157;SDS011;49381;49.338;8.794;2023-01-09T05:25:43;1.95;;;0.50;;
63157;SDS011;49381;49.338;8.794;2023-01-09T05:27:43;1.33;;;0.32;;
63157;SDS011;49381;49.338;8.794;2023-01-09T05:29:45;1.90;;;0.20;;
63157;SDS011;49381;49.338;8.794;2023-01-09T05:31:54;0.77;;;0.40;;
63157;SDS011;49381;49.338;8.794;2023-01-09T05:33:55;0.90;;;0.10;;
63157;SDS011;49381;49.338;8.794;2023-01-09T05:36:00;0.85;;;0.40;;
63157;SDS011;49381;49.338;8.794;2023-01-09T05:38:00;1.10;;;0.47;;
63157;SDS011;49381;49.338;8.794;2023-01-09T05:40:00;1.15;;;0.30;;
63157;SDS011;49381;49.338;8.794;2023-01-09T05:42:03;1.83;;;0.50;;
63157;SDS011;49381;49.338;8.794;2023-01-09T05:44:04;1.75;;;0.22;;
63157;SDS011;49381;49.338;8.794;2023-01-09T05:46:06;1.50;;;0.40;;
63157;SDS011;49381;49.338;8.794;2023-01-09T05:48:06;2.60;;;0.63;;
63157;SDS011;49381;49.338;8.794;2023-01-09T05:50:07;0.57;;;0.38;;
63157;SDS011;49381;49.338;8.794;2023-01-09T05:52:08;2.75;;;0.63;;
63157;SDS011;49381;49.338;8.794;2023-01-09T05:54:08;0.85;;;0.40;;
63157;SDS011;49381;49.338;8.794;2023-01-09T05:56:15;1.10;;;0.30;;
63157;SDS011;49381;49.338;8.794;2023-01-09T05:58:21;4.22;;;0.52;;
63157;SDS011;49381;49.338;8.794;2023-01-09T06:00:21;0.43;;;0.28;;
63157;SDS011;49381;49.338;8.794;2023-01-09T06:02:23;1.35;;;0.60;;
63157;SDS011;49381;49.338;8.794;2023-01-09T06:04:24;4.10;;;0.90;;
63157;SDS011;49381;49.338;8.794;2023-01-09T06:06:25;2.45;;;0.70;;
63157;SDS011;49381;49.338;8.794;2023-01-09T06:08:38;1.77;;;0.93;;
63157;SDS011;49381;49.338;8.794;2023-01-09T06:10:39;1.90;;;0.63;;
63157;SDS011;49381;49.338;8.794;2023-01-09T06:12:45;3.75;;;0.52;;
63157;SDS011;49381;49.338;8.794;2023-01-09T06:14:52;2.63;;;0.40;;
63157;SDS011;49381;49.338;8.794;2023-01-09T06:17:01;4.60;;;0.70;;
63157;SDS011;49381;49.338;8.794;2023-01-09T06:19:12;3.53;;;0.80;;
63157;SDS011;49381;49.338;8.794;2023-01-09T06:21:13;4.85;;;1.30;;
63157;SDS011;49381;49.338;8.794;2023-01-09T06:23:19;5.90;;;1.67;;
63157;SDS011;49381;49.338;8.794;2023-01-09T06:25:32;2.22;;;1.00;;
63157;SDS011;49381;49.338;8.794;2023-01-09T06:27:35;2.33;;;0.70;;
63157;SDS011;49381;49.338;8.794;2023-01-09T06:29:35;4.25;;;0.80;;
63157;SDS011;49381;49.338;8.794;2023-01-09T06:31:47;2.42;;;0.70;;
63157;SDS011;49381;49.338;8.794;2023-01-09T06:33:54;3.20;;;0.98;;
63157;SDS011;49381;49.338;8.794;2023-01-09T06:38:11;6.82;;;3.17;;
63157;SDS011;49381;49.338;8.794;2023-01-09T06:40:11;3.38;;;1.67;;
63157;SDS011;49381;49.338;8.794;2023-01-09T06:42:19;1.33;;;0.85;;
63157;SDS011;49381;49.338;8.794;2023-01-09T06:44:20;3.03;;;0.80;;
63157;SDS011;49381;49.338;8.794;2023-01-09T06:46:20;3.53;;;0.90;;
63157;SDS011;49381;49.338;8.794;2023-01-09T06:48:20;4.85;;;1.25;;
63157;SDS011;49381;49.338;8.794;2023-01-09T06:50:38;5.55;;;0.85;;
63157;SDS011;49381;49.338;8.794;2023-01-09T06:52:40;3.35;;;0.70;;
63157;SDS011;49381;49.338;8.794;2023-01-09T06:54:42;6.35;;;1.00;;
63157;SDS011;49381;49.338;8.794;2023-01-09T06:56:50;4.65;;;1.00;;
63157;SDS011;49381;49.338;8.794;2023-01-09T06:58:55;3.72;;;0.75;;
63157;SDS011;49381;49.338;8.794;2023-01-09T07:01:01;4.07;;;0.80;;
63157;SDS011;49381;49.338;8.794;2023-01-09T07:03:07;5.75;;;1.02;;
63157;SDS011;49381;49.338;8.794;2023-01-09T07:05:13;4.13;;;0.68;;
63157;SDS011;49381;49.338;8.794;2023-01-09T07:07:22;8.45;;;0.93;;
63157;SDS011;49381;49.338;8.794;2023-01-09T07:09:33;4.47;;;0.70;;
63157;SDS011;49381;49.338;8.794;2023-01-09T07:11:34;3.85;;;1.10;;
63157;SDS011;49381;49.338;8.794;2023-01-09T07:13:34;4.07;;;0.80;;
63157;SDS011;49381;49.338;8.794;2023-01-09T07:15:35;16.65;;;7.63;;
63157;SDS011;49381;49.338;8.794;2023-01-09T07:17:35;8.77;;;4.70;;
63157;SDS011;49381;49.338;8.794;2023-01-09T07:19:42;6.47;;;1.52;;
63157;SDS011;49381;49.338;8.794;2023-01-09T07:21:48;4.32;;;0.88;;
63157;SDS011;49381;49.338;8.794;2023-01-09T07:23:55;3.83;;;0.70;;
63157;SDS011;49381;49.338;8.794;2023-01-09T07:25:58;2.80;;;0.40;;
63157;SDS011;49381;49.338;8.794;2023-01-09T07:27:58;2.40;;;1.50;;
63157;SDS011;49381;49.338;8.794;2023-01-09T07:30:08;3.55;;;1.25;;
63157;SDS011;49381;49.338;8.794;2023-01-09T07:32:09;2.25;;;0.90;;
63157;SDS011;49381;49.338;8.794;2023-01-09T07:34:17;1.80;;;0.88;;
63157;SDS011;49381;49.338;8.794;2023-01-09T07:36:24;3.70;;;1.33;;
63157;SDS011;49381;49.338;8.794;2023-01-09T07:38:32;5.25;;;1.42;;
63157;SDS011;49381;49.338;8.794;2023-01-09T07:40:38;4.20;;;1.17;;
63157;SDS011;49381;49.338;8.794;2023-01-09T07:42:45;3.72;;;1.50;;
63157;SDS011;49381;49.338;8.794;2023-01-09T07:44:53;5.07;;;1.85;;
63157;SDS011;49381;49.338;8.794;2023-01-09T07:46:57;2.08;;;0.57;;
63157;SDS011;49381;49.338;8.794;2023-01-09T07:49:05;2.60;;;0.90;;
63157;SDS011;49381;49.338;8.794;2023-01-09T07:53:21;3.78;;;0.60;;
63157;SDS011;49381;49.338;8.794;2023-01-09T07:55:27;3.33;;;0.63;;
63157;SDS011;49381;49.338;8.794;2023-01-09T07:57:33;3.15;;;0.70;;
63157;SDS011;49381;49.338;8.794;2023-01-09T07:59:40;2.33;;;0.80;;
63157;SDS011;49381;49.338;8.794;2023-01-09T08:01:46;3.00;;;1.02;;
63157;SDS011;49381;49.338;8.794;2023-01-09T08:04:49;4.43;;;2.20;;
63157;SDS011;49381;49.338;8.794;2023-01-09T08:06:19;4.10;;;1.52;;
63157;SDS011;49381;49.338;8.794;2023-01-09T08:08:20;3.90;;;1.10;;
63157;SDS011;49381;49.338;8.794;2023-01-09T08:10:58;3.22;;;0.93;;
63157;SDS011;49381;49.338;8.794;2023-01-09T08:12:49;3.92;;;0.60;;
63157;SDS011;49381;49.338;8.794;2023-01-09T08:15:10;3.38;;;0.90;;
63157;SDS011;49381;49.338;8.794;2023-01-09T08:17:19;5.50;;;0.98;;
63157;SDS011;49381;49.338;8.794;2023-01-09T08:19:28;2.72;;;0.65;;
63157;SDS011;49381;49.338;8.794;2023-01-09T08:21:48;6.00;;;0.90;;
63157;SDS011;49381;49.338;8.794;2023-01-09T08:23:54;4.05;;;0.70;;
63157;SDS011;49381;49.338;8.794;2023-01-09T08:26:13;5.00;;;1.10;;
63157;SDS011;49381;49.338;8.794;2023-01-09T08:30:35;3.38;;;0.60;;
63157;SDS011;49381;49.338;8.794;2023-01-09T08:38:47;6.90;;;1.08;;
63157;SDS011;49381;49.338;8.794;2023-01-09T08:40:57;2.78;;;0.93;;
63157;SDS011;49381;49.338;8.794;2023-01-09T08:43:00;2.05;;;0.63;;
63157;SDS011;49381;49.338;8.794;2023-01-09T08:45:00;5.07;;;0.82;;
63157;SDS011;49381;49.338;8.794;2023-01-09T08:47:17;5.03;;;0.98;;
63157;SDS011;49381;49.338;8.794;2023-01-09T08:49:22;4.82;;;1.20;;
63157;SDS011;49381;49.338;8.794;2023-01-09T08:51:23;7.90;;;1.08;;
63157;SDS011;49381;49.338;8.794;2023-01-09T08:53:24;9.75;;;1.20;;
63157;SDS011;49381;49.338;8.794;2023-01-09T08:55:27;5.63;;;1.30;;
63157;SDS011;49381;49.338;8.794;2023-01-09T08:57:27;6.90;;;1.17;;
63157;SDS011;49381;49.338;8.794;2023-01-09T08:59:31;4.80;;;1.08;;
63157;SDS011;49381;49.338;8.794;2023-01-09T09:01:31;9.93;;;2.08;;
63157;SDS011;49381;49.338;8.794;2023-01-09T09:03:46;6.38;;;2.50;;
63157;SDS011;49381;49.338;8.794;2023-01-09T09:06:14;4.68;;;1.25;;
63157;SDS011;49381;49.338;8.794;2023-01-09T09:14:18;5.30;;;0.90;;
63157;SDS011;49381;49.338;8.794;2023-01-09T09:16:16;5.78;;;1.02;;
63157;SDS011;49381;49.338;8.794;2023-01-09T09:18:24;5.85;;;0.95;;
63157;SDS011;49381;49.338;8.794;2023-01-09T09:20:41;2.33;;;0.60;;
63157;SDS011;49381;49.338;8.794;2023-01-09T09:23:00;4.75;;;1.00;;
63157;SDS011;49381;49.338;8.794;2023-01-09T09:25:35;3.00;;;0.90;;
63157;SDS011;49381;49.338;8.794;2023-01-09T09:28:03;2.88;;;0.93;;
63157;SDS011;49381;49.338;8.794;2023-01-09T09:30:42;2.80;;;0.60;;
63157;SDS011;49381;49.338;8.794;2023-01-09T09:38:49;2.75;;;0.70;;
63157;SDS011;49381;49.338;8.794;2023-01-09T09:41:10;4.40;;;0.80;;
63157;SDS011;49381;49.338;8.794;2023-01-09T09:46:07;2.58;;;1.13;;
63157;SDS011;49381;49.338;8.794;2023-01-09T09:48:34;2.80;;;0.90;;
63157;SDS011;49381;49.338;8.794;2023-01-09T10:27:13;6.22;;;0.70;;
63157;SDS011;49381;49.338;8.794;2023-01-09T10:30:04;3.03;;;1.13;;
63157;SDS011;49381;49.338;8.794;2023-01-09T10:33:29;6.40;;;2.60;;
63157;SDS011;49381;49.338;8.794;2023-01-09T10:35:28;2.40;;;0.68;;
63157;SDS011;49381;49.338;8.794;2023-01-09T10:40:43;11.90;;;2.88;;
63157;SDS011;49381;49.338;8.794;2023-01-09T10:43:12;3.35;;;0.80;;
63157;SDS011;49381;49.338;8.794;2023-01-09T10:45:40;6.18;;;1.70;;
63157;SDS011;49381;49.338;8.794;2023-01-09T10:52:01;6.10;;;2.03;;
63157;SDS011;49381;49.338;8.794;2023-01-09T11:15:45;2.75;;;1.63;;
63157;SDS011;49381;49.338;8.794;2023-01-09T11:26:28;2.67;;;0.90;;
63157;SDS011;49381;49.338;8.794;2023-01-09T12:22:15;8.18;;;1.05;;
63157;SDS011;49381;49.338;8.794;2023-01-09T12:27:07;4.90;;;1.20;;
63157;SDS011;49381;49.338;8.794;2023-01-09T12:31:59;5.38;;;1.45;;
63157;SDS011;49381;49.338;8.794;2023-01-09T12:50:41;3.95;;;1.13;;
63157;SDS011;49381;49.338;8.794;2023-01-09T12:53:48;5.30;;;1.38;;
63157;SDS011;49381;49.338;8.794;2023-01-09T12:58:51;5.50;;;1.20;;
63157;SDS011;49381;49.338;8.794;2023-01-09T13:04:11;4.97;;;1.48;;
63157;SDS011;49381;49.338;8.794;2023-01-09T13:06:29;5.35;;;1.50;;
63157;SDS011;49381;49.338;8.794;2023-01-09T13:10:52;6.45;;;1.20;;
63157;SDS011;49381;49.338;8.794;2023-01-09T13:11:36;3.22;;;1.25;;
63157;SDS011;49381;49.338;8.794;2023-01-09T13:16:52;5.05;;;0.90;;
63157;SDS011;49381;49.338;8.794;2023-01-09T13:21:56;4.38;;;1.00;;
63157;SDS011;49381;49.338;8.794;2023-01-09T13:27:20;3.05;;;1.05;;
63157;SDS011;49381;49.338;8.794;2023-01-09T13:30:07;3.25;;;1.20;;
63157;SDS011;49381;49.338;8.794;2023-01-09T13:34:56;4.55;;;0.93;;
63157;SDS011;49381;49.338;8.794;2023-01-09T13:40:24;2.90;;;0.70;;
63157;SDS011;49381;49.338;8.794;2023-01-09T13:43:00;3.28;;;1.33;;
63157;SDS011;49381;49.338;8.794;2023-01-09T13:45:08;5.20;;;0.95;;
63157;SDS011;49381;49.338;8.794;2023-01-09T13:47:23;4.85;;;1.73;;
63157;SDS011;49381;49.338;8.794;2023-01-09T14:03:02;3.47;;;1.73;;
63157;SDS011;49381;49.338;8.794;2023-01-09T14:08:00;2.80;;;0.95;;
63157;SDS011;49381;49.338;8.794;2023-01-09T14:10:19;3.15;;;0.90;;
63157;SDS011;49381;49.338;8.794;2023-01-09T14:12:47;1.67;;;0.70;;
63157;SDS011;49381;49.338;8.794;2023-01-09T14:56:57;5.70;;;2.05;;
63157;SDS011;49381;49.338;8.794;2023-01-09T14:59:18;3.65;;;0.93;;
63157;SDS011;49381;49.338;8.794;2023-01-09T15:09:19;1.88;;;0.75;;
63157;SDS011;49381;49.338;8.794;2023-01-09T15:19:33;7.45;;;2.92;;
63157;SDS011;49381;49.338;8.794;2023-01-09T15:22:02;9.25;;;3.30;;
63157;SDS011;49381;49.338;8.794;2023-01-09T15:26:39;2.30;;;0.80;;
63157;SDS011;49381;49.338;8.794;2023-01-09T15:31:23;3.33;;;1.42;;
63157;SDS011;49381;49.338;8.794;2023-01-09T15:36:05;9.15;;;3.70;;
63157;SDS011;49381;49.338;8.794;2023-01-09T15:38:32;10.05;;;3.40;;
63157;SDS011;49381;49.338;8.794;2023-01-09T15:41:00;17.52;;;7.80;;
63157;SDS011;49381;49.338;8.794;2023-01-09T15:43:57;16.13;;;6.80;;
63157;SDS011;49381;49.338;8.794;2023-01-09T15:46:09;12.10;;;4.97;;
63157;SDS011;49381;49.338;8.794;2023-01-09T15:48:27;7.80;;;2.38;;
63157;SDS011;49381;49.338;8.794;2023-01-09T15:50:54;3.92;;;2.05;;
63157;SDS011;49381;49.338;8.794;2023-01-09T15:58:42;6.70;;;3.35;;
63157;SDS011;49381;49.338;8.794;2023-01-09T16:00:44;5.10;;;1.52;;
63157;SDS011;49381;49.338;8.794;2023-01-09T16:02:53;2.75;;;1.13;;
63157;SDS011;49381;49.338;8.794;2023-01-09T16:05:01;4.88;;;1.30;;
63157;SDS011;49381;49.338;8.794;2023-01-09T16:07:10;3.85;;;1.02;;
63157;SDS011;49381;49.338;8.794;2023-01-09T16:09:24;2.97;;;1.00;;
63157;SDS011;49381;49.338;8.794;2023-01-09T16:11:27;2.38;;;0.70;;
63157;SDS011;49381;49.338;8.794;2023-01-09T16:13:33;3.20;;;1.10;;
63157;SDS011;49381;49.338;8.794;2023-01-09T16:15:45;2.58;;;1.00;;
63157;SDS011;49381;49.338;8.794;2023-01-09T16:20:11;2.85;;;1.50;;
63157;SDS011;49381;49.338;8.794;2023-01-09T16:22:18;5.35;;;1.20;;
63157;SDS011;49381;49.338;8.794;2023-01-09T16:24:23;3.50;;;0.98;;
63157;SDS011;49381;49.338;8.794;2023-01-09T16:26:31;2.03;;;1.00;;
63157;SDS011;49381;49.338;8.794;2023-01-09T16:28:32;5.10;;;1.27;;
63157;SDS011;49381;49.338;8.794;2023-01-09T16:30:56;4.95;;;0.98;;
63157;SDS011;49381;49.338;8.794;2023-01-09T16:32:59;3.10;;;1.00;;
63157;SDS011;49381;49.338;8.794;2023-01-09T16:35:00;2.88;;;1.02;;
63157;SDS011;49381;49.338;8.794;2023-01-09T16:37:03;3.35;;;1.50;;
63157;SDS011;49381;49.338;8.794;2023-01-09T16:39:08;2.83;;;1.48;;
63157;SDS011;49381;49.338;8.794;2023-01-09T16:41:12;3.45;;;1.20;;
63157;SDS011;49381;49.338;8.794;2023-01-09T16:43:14;3.78;;;1.50;;
63157;SDS011;49381;49.338;8.794;2023-01-09T16:45:16;4.18;;;1.25;;
63157;SDS011;49381;49.338;8.794;2023-01-09T16:47:24;4.60;;;1.38;;
63157;SDS011;49381;49.338;8.794;2023-01-09T16:49:28;2.60;;;1.00;;
63157;SDS011;49381;49.338;8.794;2023-01-09T16:51:31;5.82;;;1.58;;
63157;SDS011;49381;49.338;8.794;2023-01-09T16:53:31;7.15;;;1.85;;
63157;SDS011;49381;49.338;8.794;2023-01-09T16:55:38;6.72;;;1.70;;
63157;SDS011;49381;49.338;8.794;2023-01-09T16:57:52;2.75;;;1.30;;
63157;SDS011;49381;49.338;8.794;2023-01-09T17:00:02;4.13;;;1.63;;
63157;SDS011;49381;49.338;8.794;2023-01-09T17:02:14;8.23;;;3.47;;
63157;SDS011;49381;49.338;8.794;2023-01-09T17:04:19;6.00;;;2.05;;
63157;SDS011;49381;49.338;8.794;2023-01-09T17:08:38;5.13;;;1.75;;
63157;SDS011;49381;49.338;8.794;2023-01-09T17:10:48;2.60;;;1.50;;
63157;SDS011;49381;49.338;8.794;2023-01-09T17:12:57;4.60;;;1.40;;
63157;SDS011;49381;49.338;8.794;2023-01-09T17:14:59;4.05;;;1.30;;
63157;SDS011;49381;49.338;8.794;2023-01-09T17:17:13;4.18;;;1.50;;
63157;SDS011;49381;49.338;8.794;2023-01-09T17:21:48;2.60;;;0.88;;
63157;SDS011;49381;49.338;8.794;2023-01-09T17:23:54;3.45;;;0.90;;
63157;SDS011;49381;49.338;8.794;2023-01-09T17:26:03;5.18;;;1.10;;
63157;SDS011;49381;49.338;8.794;2023-01-09T17:28:25;4.25;;;1.33;;
63157;SDS011;49381;49.338;8.794;2023-01-09T17:30:28;2.88;;;1.17;;
63157;SDS011;49381;49.338;8.794;2023-01-09T17:32:34;7.20;;;1.83;;
63157;SDS011;49381;49.338;8.794;2023-01-09T17:34:38;4.00;;;1.40;;
63157;SDS011;49381;49.338;8.794;2023-01-09T17:36:39;7.30;;;1.55;;
63157;SDS011;49381;49.338;8.794;2023-01-09T17:38:39;6.97;;;2.15;;
63157;SDS011;49381;49.338;8.794;2023-01-09T17:40:40;4.68;;;1.90;;